Time;durP1;ratioP1;P1;durP2;ratioP2;P2;SDS_P1;SDS_P2;PMS_P1;PMS_P2;Temp;Humidity;BMP_temperature;BMP_pressure;BME280_temperature;BME280_humidity;BME280_pressure;Samples;Min_cycle;Max_cycle;Signal;HPM_P1;HPM_P2
2024/04/08 00:01:35;;;;;;;9.00;2.47;;;16.70;83.90;;;;;;5051321;28;20455;-70
2024/04/08 00:04:02;;;;;;;12.30;2.60;;;16.60;84.60;;;;;;5067957;28;20936;-69
2024/04/08 00:06:27;;;;;;;11.73;2.27;;;16.60;82.40;;;;;;5051351;28;20479;-68
2024/04/08 00:08:54;;;;;;;10.83;2.60;;;16.60;81.70;;;;;;5051767;28;20450;-69
2024/04/08 00:11:20;;;;;;;11.70;2.73;;;16.80;82.60;;;;;;5068345;28;20485;-70
2024/04/08 00:13:49;;;;;;;12.13;2.50;;;16.70;82.20;;;;;;5051542;28;20443;-70
2024/04/08 00:16:15;;;;;;;12.10;3.37;;;16.80;83.30;;;;;;5051665;28;20463;-69
2024/04/08 00:18:42;;;;;;;12.03;2.33;;;16.60;83.20;;;;;;5052012;28;20481;-69
2024/04/08 00:21:08;;;;;;;12.67;3.00;;;16.40;85.50;;;;;;5052242;28;20467;-69
2024/04/08 00:23:35;;;;;;;12.10;2.90;;;16.20;87.00;;;;;;5051111;28;20446;-69
2024/04/08 00:26:02;;;;;;;11.40;3.03;;;16.00;87.10;;;;;;5051079;28;20980;-69
2024/04/08 00:28:29;;;;;;;11.20;2.57;;;15.90;87.80;;;;;;5052088;28;20447;-69
2024/04/08 00:31:01;;;;;;;9.67;2.83;;;16.00;86.70;;;;;;5051757;28;20505;-69
2024/04/08 00:33:28;;;;;;;11.10;2.47;;;16.00;87.50;;;;;;5051698;28;20467;-70
2024/04/08 00:35:54;;;;;;;13.80;2.40;;;15.90;89.30;;;;;;5068334;28;20463;-68
2024/04/08 00:38:21;;;;;;;10.90;2.27;;;16.30;85.00;;;;;;5051729;28;20458;-71
2024/04/08 00:40:47;;;;;;;12.63;2.73;;;16.50;84.90;;;;;;5051269;28;20474;-71
2024/04/08 00:43:14;;;;;;;10.10;2.67;;;16.40;85.00;;;;;;5062866;28;20471;-70
2024/04/08 00:45:41;;;;;;;11.53;2.53;;;16.30;84.70;;;;;;5051308;28;20475;-68
2024/04/08 00:49:45;;;;;;;9.97;2.53;;;16.10;88.90;;;;;;5574768;25;20997;-69
2024/04/08 00:52:13;;;;;;;10.90;3.60;;;15.90;89.00;;;;;;5556567;25;20503;-70
2024/04/08 00:54:43;;;;;;;11.60;3.17;;;15.80;89.60;;;;;;5575064;25;20462;-69
2024/04/08 00:57:14;;;;;;;9.33;2.80;;;16.00;88.30;;;;;;5565066;25;20885;-70
2024/04/08 00:59:44;;;;;;;10.67;2.30;;;15.80;89.20;;;;;;5550447;25;20511;-69
2024/04/08 01:02:11;;;;;;;11.13;2.43;;;15.70;90.60;;;;;;5555216;25;20545;-70
2024/04/08 01:04:43;;;;;;;14.70;3.23;;;15.50;90.80;;;;;;5561952;25;20462;-70
2024/04/08 01:07:11;;;;;;;11.73;3.00;;;15.80;90.40;;;;;;5564988;25;20474;-69
2024/04/08 01:09:40;;;;;;;12.17;3.20;;;16.10;87.60;;;;;;5561510;25;20532;-71
2024/04/08 01:12:08;;;;;;;10.07;2.67;;;16.30;87.90;;;;;;5563961;25;20466;-69
2024/04/08 01:14:37;;;;;;;12.00;2.80;;;16.40;87.30;;;;;;5561443;25;20511;-70
2024/04/08 01:17:05;;;;;;;10.40;3.07;;;16.40;87.20;;;;;;5562566;25;20452;-70
2024/04/08 01:19:35;;;;;;;12.13;3.07;;;16.20;87.00;;;;;;5568019;25;20454;-70
2024/04/08 01:22:07;;;;;;;9.83;2.70;;;16.00;90.80;;;;;;5562127;25;21230;-70
2024/04/08 01:24:37;;;;;;;12.27;2.83;;;15.90;92.40;;;;;;5561735;25;21003;-71
2024/04/08 01:27:07;;;;;;;12.50;2.73;;;15.70;94.10;;;;;;5562301;25;20472;-70
2024/04/08 01:29:35;;;;;;;9.80;2.43;;;15.60;94.50;;;;;;5548568;25;20464;-70
2024/04/08 01:32:05;;;;;;;13.83;2.77;;;15.50;94.40;;;;;;5531529;25;20458;-70
2024/04/08 01:34:32;;;;;;;10.27;2.70;;;15.40;96.70;;;;;;5556201;25;20511;-71
2024/04/08 01:37:02;;;;;;;9.70;2.50;;;15.30;95.90;;;;;;5559659;25;20589;-70
2024/04/08 01:39:29;;;;;;;13.90;3.30;;;15.60;94.60;;;;;;5563030;25;20462;-70
2024/04/08 01:42:01;;;;;;;9.90;3.17;;;15.90;93.20;;;;;;5560007;25;20480;-70
2024/04/08 01:44:29;;;;;;;11.50;2.77;;;16.00;92.90;;;;;;5554713;25;20482;-70
2024/04/08 01:46:58;;;;;;;11.33;2.90;;;16.00;92.40;;;;;;5559364;25;21076;-69
2024/04/08 01:49:27;;;;;;;11.70;2.90;;;16.00;92.20;;;;;;5564463;25;20466;-70
2024/04/08 01:51:57;;;;;;;13.00;2.70;;;15.80;94.40;;;;;;5564286;25;20543;-71
2024/04/08 01:54:24;;;;;;;8.20;2.77;;;15.80;95.20;;;;;;5564168;25;20511;-70
2024/04/08 01:56:54;;;;;;;10.20;2.67;;;15.60;95.50;;;;;;5558535;25;20479;-71
2024/04/08 01:59:23;;;;;;;13.13;3.63;;;15.50;96.70;;;;;;5558393;25;21015;-71
2024/04/08 02:01:53;;;;;;;9.53;3.37;;;15.40;97.50;;;;;;5543290;25;20468;-70
2024/04/08 02:04:20;;;;;;;13.93;2.87;;;15.40;98.10;;;;;;5547530;25;20926;-70
2024/04/08 02:06:50;;;;;;;9.67;3.13;;;15.30;98.80;;;;;;5547412;25;20996;-71
2024/04/08 02:09:17;;;;;;;14.17;3.80;;;15.20;99.50;;;;;;5548467;25;20511;-70
2024/04/08 02:11:46;;;;;;;11.20;3.20;;;15.30;96.50;;;;;;5543959;25;20514;-72
2024/04/08 02:14:14;;;;;;;12.10;3.97;;;15.60;96.10;;;;;;5537710;25;21038;-72
2024/04/08 02:16:46;;;;;;;10.53;3.30;;;15.90;94.30;;;;;;5543921;25;20483;-71
2024/04/08 02:19:13;;;;;;;10.73;3.00;;;16.00;94.20;;;;;;5547263;25;20463;-71
2024/04/08 02:21:43;;;;;;;11.10;3.90;;;15.90;93.80;;;;;;5544657;25;20463;-71
2024/04/08 02:24:10;;;;;;;12.03;3.90;;;15.90;93.50;;;;;;5547260;25;20515;-71
2024/04/08 02:26:40;;;;;;;11.70;3.93;;;15.80;95.90;;;;;;5545325;25;20531;-71
2024/04/08 02:29:07;;;;;;;14.03;4.37;;;15.60;97.30;;;;;;5546729;25;20584;-72
2024/04/08 02:31:36;;;;;;;11.20;4.07;;;15.60;96.30;;;;;;5542046;25;20460;-71
2024/04/08 02:34:06;;;;;;;14.23;3.87;;;15.60;97.60;;;;;;5547891;25;20468;-72
2024/04/08 02:36:36;;;;;;;10.63;3.80;;;15.80;96.10;;;;;;5551003;25;20523;-70
2024/04/08 02:39:04;;;;;;;11.40;3.80;;;15.60;97.40;;;;;;5545679;25;20513;-71
2024/04/08 02:41:34;;;;;;;11.27;3.90;;;15.30;99.40;;;;;;5552247;25;21068;-71
2024/04/08 02:44:01;;;;;;;16.37;4.00;;;15.10;99.30;;;;;;5545181;25;20553;-71
2024/04/08 02:46:30;;;;;;;10.47;4.80;;;15.20;98.90;;;;;;5544503;25;20503;-72
2024/04/08 02:48:57;;;;;;;12.37;4.03;;;15.20;99.00;;;;;;5547848;25;20817;-71
2024/04/08 02:51:30;;;;;;;16.30;4.37;;;15.00;99.90;;;;;;5548296;25;21023;-71
2024/04/08 02:53:57;;;;;;;13.70;3.90;;;15.10;98.70;;;;;;5537355;25;20464;-70
2024/04/08 02:56:26;;;;;;;12.93;4.20;;;14.80;99.60;;;;;;5540307;25;20467;-71
2024/04/08 02:58:53;;;;;;;12.83;3.83;;;14.70;99.90;;;;;;5543473;25;20525;-71
2024/04/08 03:01:23;;;;;;;11.77;4.03;;;14.80;99.90;;;;;;5548166;25;20466;-71
2024/04/08 03:03:52;;;;;;;12.40;3.80;;;14.90;99.40;;;;;;5547445;25;20518;-71
2024/04/08 03:06:22;;;;;;;10.17;4.07;;;14.70;99.90;;;;;;5547821;25;20916;-71
2024/04/08 03:08:52;;;;;;;10.20;3.23;;;14.50;99.90;;;;;;5511188;25;20462;-70
2024/04/08 03:11:22;;;;;;;16.13;3.90;;;14.60;99.90;;;;;;5523765;25;20476;-70
2024/04/08 03:13:50;;;;;;;10.90;4.13;;;14.70;99.90;;;;;;5523572;25;20462;-71
2024/04/08 03:16:20;;;;;;;12.00;4.47;;;14.80;99.90;;;;;;5532849;25;21020;-71
2024/04/08 03:18:47;;;;;;;12.87;3.90;;;14.70;99.90;;;;;;5519160;25;20513;-72
2024/04/08 03:21:16;;;;;;;12.90;3.90;;;14.40;99.90;;;;;;5517302;25;20465;-71
2024/04/08 03:23:44;;;;;;;14.20;3.30;;;14.20;99.90;;;;;;5527653;25;20533;-71
2024/04/08 03:26:16;;;;;;;10.37;4.30;;;14.00;99.90;;;;;;5536074;25;20465;-71
2024/04/08 03:28:43;;;;;;;11.77;4.93;;;13.90;99.90;;;;;;5513579;25;20467;-71
2024/04/08 03:31:13;;;;;;;11.37;3.80;;;13.80;99.90;;;;;;5527142;25;21119;-70
2024/04/08 03:33:40;;;;;;;10.80;4.07;;;13.70;99.90;;;;;;5517279;25;20466;-70
2024/04/08 03:36:16;;;;;;;14.13;3.80;;;13.50;99.90;;;;;;5526912;25;20473;-71
2024/04/08 03:38:46;;;;;;;10.73;4.30;;;13.50;99.90;;;;;;5541460;25;20459;-70
2024/04/08 03:41:18;;;;;;;13.73;4.47;;;13.40;99.90;;;;;;5526803;25;21129;-71
2024/04/08 03:43:48;;;;;;;17.10;3.70;;;13.30;99.90;;;;;;5544091;25;20463;-70
2024/04/08 03:46:15;;;;;;;13.10;4.10;;;13.30;99.90;;;;;;5537328;25;20531;-70
2024/04/08 03:48:45;;;;;;;13.13;4.60;;;13.30;99.90;;;;;;5538103;25;20514;-71
2024/04/08 03:51:13;;;;;;;13.67;4.90;;;13.30;99.90;;;;;;5547841;25;20520;-70
2024/04/08 03:53:42;;;;;;;15.10;3.70;;;13.20;99.90;;;;;;5539603;25;20518;-69
2024/04/08 03:56:11;;;;;;;12.50;3.53;;;13.30;99.90;;;;;;5551019;25;20455;-71
2024/04/08 03:58:44;;;;;;;14.33;4.30;;;13.20;99.90;;;;;;5546513;25;20502;-71
2024/04/08 04:01:11;;;;;;;12.80;3.50;;;13.20;99.90;;;;;;5547704;25;20522;-71
2024/04/08 04:03:41;;;;;;;9.97;3.60;;;13.00;99.90;;;;;;5553856;25;20463;-71
2024/04/08 04:06:08;;;;;;;10.43;4.23;;;12.80;99.90;;;;;;5546455;25;20470;-70
2024/04/08 04:08:38;;;;;;;11.70;3.60;;;12.90;99.90;;;;;;5546632;25;20551;-70
2024/04/08 04:11:06;;;;;;;11.07;4.53;;;13.00;99.90;;;;;;5546113;25;20472;-71
2024/04/08 04:13:35;;;;;;;18.73;4.43;;;12.80;99.90;;;;;;5546546;25;20530;-70
2024/04/08 04:16:05;;;;;;;16.30;4.37;;;12.90;99.90;;;;;;5549260;25;20480;-70
2024/04/08 04:18:35;;;;;;;12.20;4.90;;;12.80;99.90;;;;;;5547274;25;20508;-69
2024/04/08 04:21:02;;;;;;;14.93;3.77;;;12.60;99.90;;;;;;5545304;25;20469;-69
2024/04/08 04:23:32;;;;;;;11.20;4.00;;;12.60;99.90;;;;;;5546843;25;20511;-70
2024/04/08 04:25:59;;;;;;;12.63;5.00;;;12.60;99.90;;;;;;5543984;25;20536;-70
2024/04/08 04:28:29;;;;;;;11.43;4.57;;;12.70;99.90;;;;;;5551883;25;20475;-70
2024/04/08 04:30:58;;;;;;;11.67;4.10;;;12.70;99.90;;;;;;5547526;25;20519;-70
2024/04/08 04:33:35;;;;;;;13.07;4.70;;;12.60;99.90;;;;;;5551547;25;20548;-70
2024/04/08 04:36:03;;;;;;;18.97;4.30;;;12.60;99.90;;;;;;5542328;25;21107;-71
2024/04/08 04:38:33;;;;;;;13.70;5.00;;;12.60;99.90;;;;;;5552197;25;20572;-70
2024/04/08 04:41:00;;;;;;;14.53;4.40;;;12.40;99.90;;;;;;5551573;25;20887;-70
2024/04/08 04:43:31;;;;;;;13.57;6.90;;;12.30;99.90;;;;;;5551928;25;21165;-72
2024/04/08 04:45:58;;;;;;;13.20;4.80;;;12.20;99.90;;;;;;5505714;26;20461;-72
2024/04/08 04:48:28;;;;;;;13.67;4.87;;;12.30;99.90;;;;;;5518229;25;20525;-70
2024/04/08 04:50:58;;;;;;;12.50;4.80;;;12.20;99.90;;;;;;5516878;26;20476;-68
2024/04/08 04:53:27;;;;;;;12.67;4.63;;;12.20;99.90;;;;;;5517318;25;20581;-70
2024/04/08 04:55:55;;;;;;;13.30;5.87;;;12.30;99.90;;;;;;5525806;25;20467;-71
2024/04/08 04:58:25;;;;;;;14.13;5.23;;;12.20;99.90;;;;;;5515265;25;20452;-70
2024/04/08 05:00:52;;;;;;;13.73;4.50;;;12.30;99.90;;;;;;5521824;25;20526;-68
2024/04/08 05:03:22;;;;;;;12.20;4.90;;;12.60;99.90;;;;;;5517328;25;20512;-70
2024/04/08 05:05:53;;;;;;;12.33;4.63;;;12.90;99.90;;;;;;5539626;25;20510;-69
2024/04/08 05:08:25;;;;;;;11.83;4.77;;;12.70;99.90;;;;;;5547416;25;20928;-71
2024/04/08 05:10:52;;;;;;;12.80;4.67;;;12.60;99.90;;;;;;5542821;25;20463;-71
2024/04/08 05:13:22;;;;;;;15.60;4.90;;;12.60;99.90;;;;;;5543469;25;20511;-70
2024/04/08 05:15:57;;;;;;;16.27;5.40;;;13.00;99.90;;;;;;5534275;25;20479;-72
2024/04/08 05:18:27;;;;;;;16.10;5.10;;;13.10;99.90;;;;;;5536020;25;20470;-71
2024/04/08 05:20:55;;;;;;;10.23;4.80;;;13.10;99.90;;;;;;5542337;25;21557;-69
2024/04/08 05:23:28;;;;;;;15.53;3.90;;;13.10;99.90;;;;;;5545813;25;20541;-69
2024/04/08 05:25:55;;;;;;;19.87;7.40;;;13.00;99.90;;;;;;5512794;25;20462;-70
2024/04/08 05:28:25;;;;;;;11.40;4.93;;;12.80;99.90;;;;;;5513129;25;20922;-69
2024/04/08 05:30:52;;;;;;;11.07;4.33;;;12.70;99.90;;;;;;5533126;25;20472;-70
2024/04/08 05:33:22;;;;;;;11.90;4.50;;;12.60;99.90;;;;;;5526728;25;20470;-70
2024/04/08 05:35:49;;;;;;;15.03;4.80;;;12.60;99.90;;;;;;5527461;25;20464;-69
2024/04/08 05:38:19;;;;;;;14.63;5.03;;;12.70;99.90;;;;;;5526271;25;21505;-69
2024/04/08 05:40:49;;;;;;;15.77;4.40;;;12.80;99.90;;;;;;5534800;25;20873;-69
2024/04/08 05:43:19;;;;;;;18.43;5.40;;;13.00;99.90;;;;;;5521414;25;20519;-68
2024/04/08 05:45:47;;;;;;;16.03;5.00;;;13.10;99.90;;;;;;5528676;25;20858;-69
2024/04/08 05:48:17;;;;;;;16.33;4.73;;;13.10;99.90;;;;;;5521532;25;21089;-70
2024/04/08 05:50:46;;;;;;;16.77;5.70;;;13.10;99.90;;;;;;5551263;25;20462;-70
2024/04/08 05:53:15;;;;;;;12.53;4.87;;;13.30;99.90;;;;;;5530388;25;20467;-69
2024/04/08 05:55:42;;;;;;;12.30;4.43;;;13.30;99.90;;;;;;5544393;25;20523;-69
2024/04/08 05:58:15;;;;;;;14.10;5.00;;;13.40;99.90;;;;;;5536070;25;20613;-70
2024/04/08 06:00:43;;;;;;;18.60;5.67;;;13.40;99.90;;;;;;5536270;25;20813;-70
2024/04/08 06:03:12;;;;;;;13.80;4.60;;;13.50;99.90;;;;;;5539840;25;20463;-70
2024/04/08 06:05:41;;;;;;;16.37;4.70;;;13.60;99.90;;;;;;5542966;25;20459;-69
2024/04/08 06:08:11;;;;;;;19.67;5.47;;;13.70;99.90;;;;;;5528255;25;22174;-70
2024/04/08 06:10:44;;;;;;;12.80;4.70;;;13.80;99.90;;;;;;5538668;25;20507;-70
2024/04/08 06:13:17;;;;;;;16.30;5.00;;;13.80;99.90;;;;;;5550686;25;20464;-69
2024/04/08 06:15:44;;;;;;;13.90;4.87;;;13.90;99.90;;;;;;5549126;25;20472;-69
2024/04/08 06:18:13;;;;;;;16.07;4.50;;;14.00;99.90;;;;;;5550421;25;20465;-70
2024/04/08 06:20:42;;;;;;;9.93;3.90;;;14.10;99.90;;;;;;5550221;25;20469;-70
2024/04/08 06:23:12;;;;;;;18.00;4.67;;;14.30;99.90;;;;;;5550057;25;20475;-69
2024/04/08 06:25:39;;;;;;;11.33;3.60;;;14.60;99.90;;;;;;5550518;25;20506;-69
2024/04/08 06:28:09;;;;;;;17.80;4.47;;;14.60;99.90;;;;;;5549251;25;20470;-69
2024/04/08 06:30:39;;;;;;;12.57;4.30;;;14.90;99.90;;;;;;5551314;25;20517;-70
2024/04/08 06:33:09;;;;;;;12.30;3.80;;;15.10;99.90;;;;;;5551111;25;20467;-69
2024/04/08 06:35:37;;;;;;;16.03;4.30;;;15.10;99.90;;;;;;5551109;25;20504;-69
2024/04/08 06:38:07;;;;;;;15.93;4.40;;;15.00;99.90;;;;;;5548359;25;20467;-69
2024/04/08 06:40:34;;;;;;;14.90;5.70;;;15.00;99.90;;;;;;5551334;25;20462;-69
2024/04/08 06:43:03;;;;;;;15.97;4.40;;;15.00;99.90;;;;;;5547402;25;20516;-70
2024/04/08 06:45:30;;;;;;;12.30;4.07;;;15.00;99.90;;;;;;5550705;25;20526;-69
2024/04/08 06:48:03;;;;;;;16.60;4.03;;;15.10;99.90;;;;;;5542521;25;20566;-70
2024/04/08 06:50:30;;;;;;;12.47;3.80;;;15.20;99.90;;;;;;5548705;25;20481;-68
2024/04/08 06:53:00;;;;;;;14.07;4.70;;;15.30;99.90;;;;;;5544271;25;20527;-70
2024/04/08 06:55:27;;;;;;;12.37;3.73;;;15.50;99.90;;;;;;5548253;25;20550;-70
2024/04/08 06:57:57;;;;;;;12.73;4.53;;;15.90;99.90;;;;;;5544635;25;20515;-69
2024/04/08 07:00:24;;;;;;;12.50;4.53;;;16.00;99.90;;;;;;5548269;25;20475;-70
2024/04/08 07:02:54;;;;;;;12.17;4.20;;;16.10;99.90;;;;;;5544281;25;20460;-70
2024/04/08 07:05:24;;;;;;;11.47;3.77;;;16.20;99.90;;;;;;5548510;25;20523;-70
2024/04/08 07:07:53;;;;;;;12.43;4.60;;;16.30;99.90;;;;;;5544919;25;20459;-70
2024/04/08 07:10:22;;;;;;;14.30;4.40;;;16.40;99.90;;;;;;5548850;25;20467;-69
2024/04/08 07:12:52;;;;;;;17.90;4.60;;;16.50;99.90;;;;;;5544483;25;20459;-70
2024/04/08 07:15:20;;;;;;;14.67;4.30;;;16.60;99.90;;;;;;5548198;25;20512;-70
2024/04/08 07:17:49;;;;;;;14.20;4.63;;;16.70;99.90;;;;;;5546372;25;20508;-69
2024/04/08 07:20:17;;;;;;;13.83;4.03;;;16.80;99.90;;;;;;5538318;25;20519;-70
2024/04/08 07:22:49;;;;;;;13.27;3.60;;;17.00;99.90;;;;;;5548185;25;20521;-70
2024/04/08 07:25:16;;;;;;;13.73;3.57;;;17.20;99.90;;;;;;5536535;25;20507;-70
2024/04/08 07:27:46;;;;;;;14.80;4.00;;;17.30;99.90;;;;;;5547997;25;20459;-70
2024/04/08 07:30:13;;;;;;;15.63;5.80;;;17.40;99.90;;;;;;5549833;25;20490;-70
2024/04/08 07:32:43;;;;;;;13.33;5.23;;;17.50;99.90;;;;;;5548866;25;21065;-71
2024/04/08 07:35:12;;;;;;;13.07;4.33;;;17.70;99.90;;;;;;5536291;25;20538;-70
2024/04/08 07:37:42;;;;;;;13.60;5.33;;;17.90;99.90;;;;;;5549405;25;20518;-70
2024/04/08 07:40:12;;;;;;;13.97;4.00;;;18.00;99.90;;;;;;5536454;25;21318;-70
2024/04/08 07:42:45;;;;;;;15.97;4.23;;;18.20;99.90;;;;;;5536941;25;20461;-71
2024/04/08 07:45:12;;;;;;;18.20;4.60;;;18.40;99.90;;;;;;5549369;25;20502;-70
2024/04/08 07:47:43;;;;;;;14.93;4.33;;;18.50;99.90;;;;;;5549281;25;20459;-70
2024/04/08 07:50:10;;;;;;;13.37;3.67;;;18.70;99.90;;;;;;5549082;25;20459;-70
2024/04/08 07:52:40;;;;;;;10.40;3.17;;;18.90;99.90;;;;;;5550049;25;20455;-71
2024/04/08 07:55:07;;;;;;;13.07;4.20;;;19.00;99.90;;;;;;5546851;25;20934;-70
2024/04/08 07:57:40;;;;;;;14.67;4.03;;;19.10;99.90;;;;;;5548778;25;20577;-71
2024/04/08 08:00:08;;;;;;;12.73;4.30;;;19.20;99.90;;;;;;5546489;25;20452;-70
2024/04/08 08:02:37;;;;;;;13.27;4.13;;;19.30;99.90;;;;;;5550143;25;20515;-69
2024/04/08 08:05:05;;;;;;;13.13;4.37;;;19.50;99.90;;;;;;5544907;25;20465;-69
2024/04/08 08:07:34;;;;;;;16.40;4.27;;;19.80;99.90;;;;;;5549861;25;20512;-70
2024/04/08 08:10:04;;;;;;;12.37;4.50;;;19.90;99.90;;;;;;5547429;25;20452;-70
2024/04/08 08:12:34;;;;;;;16.13;5.33;;;20.10;99.90;;;;;;5550117;25;21141;-71
2024/04/08 08:15:07;;;;;;;15.63;4.20;;;20.10;99.90;;;;;;5547017;25;20523;-71
2024/04/08 08:17:37;;;;;;;17.20;4.07;;;20.30;99.90;;;;;;5549790;25;20478;-70
2024/04/08 08:20:08;;;;;;;13.13;4.30;;;20.40;99.90;;;;;;5547557;25;20468;-70
2024/04/08 08:22:35;;;;;;;14.00;3.70;;;20.70;99.90;;;;;;5550988;25;20471;-71
2024/04/08 08:25:05;;;;;;;12.50;4.17;;;20.70;99.90;;;;;;5547440;25;20464;-71
2024/04/08 08:27:35;;;;;;;14.30;3.60;;;20.80;99.90;;;;;;5551447;25;20510;-70
2024/04/08 08:30:08;;;;;;;16.00;3.40;;;21.00;95.80;;;;;;5535074;25;20528;-70
2024/04/08 08:32:38;;;;;;;12.93;3.93;;;21.20;95.20;;;;;;5550375;25;20507;-71
2024/04/08 08:35:08;;;;;;;12.87;3.73;;;21.30;96.30;;;;;;5550026;25;20618;-69
2024/04/08 08:37:35;;;;;;;13.23;3.77;;;21.50;95.40;;;;;;5550655;25;20814;-71
2024/04/08 08:40:06;;;;;;;12.67;3.30;;;21.70;94.10;;;;;;5548662;25;21266;-71
2024/04/08 08:42:34;;;;;;;12.50;4.23;;;21.80;93.60;;;;;;5550517;25;20515;-70
2024/04/08 08:45:08;;;;;;;14.20;3.67;;;22.00;90.70;;;;;;5535165;25;21155;-71
2024/04/08 08:47:36;;;;;;;14.63;3.93;;;22.10;91.00;;;;;;5550576;25;20578;-70
2024/04/08 08:50:07;;;;;;;17.60;4.50;;;22.30;91.00;;;;;;5547866;25;20541;-71
2024/04/08 08:52:34;;;;;;;14.30;3.23;;;22.40;92.60;;;;;;5550666;25;20463;-70
2024/04/08 08:55:05;;;;;;;11.90;3.30;;;22.60;87.70;;;;;;5547620;25;20584;-71
2024/04/08 08:57:33;;;;;;;13.40;3.73;;;22.60;87.60;;;;;;5550097;25;21028;-71
2024/04/08 09:00:09;;;;;;;13.60;3.80;;;22.90;78.10;;;;;;5548071;25;20463;-71
2024/04/08 09:02:42;;;;;;;15.90;4.37;;;23.10;78.50;;;;;;5549747;25;20544;-70
2024/04/08 09:05:10;;;;;;;21.03;3.77;;;23.10;77.20;;;;;;5531399;25;20468;-69
2024/04/08 09:07:40;;;;;;;11.70;2.67;;;23.30;80.30;;;;;;5542181;25;20510;-70
2024/04/08 09:10:07;;;;;;;14.53;3.03;;;23.50;80.40;;;;;;5552798;25;20469;-70
2024/04/08 09:12:36;;;;;;;11.80;2.73;;;23.80;74.50;;;;;;5553242;25;20524;-70
2024/04/08 09:15:08;;;;;;;14.73;3.03;;;24.10;70.90;;;;;;5550610;25;20464;-71
2024/04/08 09:17:37;;;;;;;13.97;5.63;;;24.30;70.80;;;;;;5553509;25;20459;-70
2024/04/08 09:20:06;;;;;;;9.33;2.57;;;24.50;70.90;;;;;;5543859;25;20460;-71
2024/04/08 09:22:36;;;;;;;15.90;2.90;;;24.70;66.20;;;;;;5553542;25;20813;-70
2024/04/08 09:25:04;;;;;;;11.50;2.73;;;24.90;63.70;;;;;;5550610;25;20481;-71
2024/04/08 09:27:33;;;;;;;12.53;2.97;;;24.90;63.40;;;;;;5553063;25;20520;-70
2024/04/08 09:30:03;;;;;;;10.50;2.17;;;25.30;60.00;;;;;;5551145;25;20470;-70
2024/04/08 09:32:33;;;;;;;10.77;2.50;;;25.40;58.50;;;;;;5553478;25;20463;-70
2024/04/08 09:35:03;;;;;;;11.83;2.10;;;25.70;58.40;;;;;;5550751;25;20467;-70
2024/04/08 09:37:31;;;;;;;10.73;2.43;;;26.00;56.30;;;;;;5553212;25;20513;-69
2024/04/08 09:40:03;;;;;;;11.40;2.10;;;26.30;56.10;;;;;;5550959;25;20466;-70
2024/04/08 09:42:32;;;;;;;13.10;2.90;;;26.50;54.80;;;;;;5553913;25;20466;-70
2024/04/08 09:45:03;;;;;;;9.77;2.50;;;26.70;53.20;;;;;;5551132;25;21094;-70
2024/04/08 09:47:33;;;;;;;10.53;2.10;;;26.90;53.00;;;;;;5553316;25;21553;-70
2024/04/08 09:50:04;;;;;;;14.23;3.40;;;27.10;50.90;;;;;;5551417;25;20875;-71
2024/04/08 09:52:32;;;;;;;13.90;3.50;;;27.20;46.30;;;;;;5553517;25;20478;-71
2024/04/08 09:55:01;;;;;;;14.57;4.17;;;27.30;48.80;;;;;;5550984;25;20471;-70
2024/04/08 09:57:32;;;;;;;10.90;2.50;;;27.50;46.10;;;;;;5553209;25;20471;-71
2024/04/08 10:00:03;;;;;;;15.40;2.57;;;27.60;49.40;;;;;;5551389;25;20474;-70
2024/04/08 10:02:42;;;;;;;11.67;3.50;;;27.80;49.20;;;;;;5553948;25;20466;-70
2024/04/08 10:05:15;;;;;;;11.77;2.80;;;27.90;47.70;;;;;;5550402;25;20833;-71
2024/04/08 10:07:43;;;;;;;10.47;2.93;;;28.10;45.10;;;;;;5553319;25;20462;-70
2024/04/08 10:10:15;;;;;;;12.80;2.90;;;28.40;43.30;;;;;;5551004;25;20523;-72
2024/04/08 10:12:42;;;;;;;14.90;4.43;;;28.50;46.80;;;;;;5553162;25;21201;-72
2024/04/08 10:15:13;;;;;;;14.57;3.10;;;28.60;45.80;;;;;;5551605;25;20516;-71
2024/04/08 10:17:44;;;;;;;11.80;3.37;;;28.90;46.90;;;;;;5553279;25;20466;-71
2024/04/08 10:20:16;;;;;;;12.90;3.20;;;29.10;44.90;;;;;;5552782;25;20848;-71
2024/04/08 10:22:44;;;;;;;15.93;2.47;;;29.40;41.30;;;;;;5552795;25;20459;-72
2024/04/08 10:25:36;;;;;;;10.40;2.23;;;29.40;42.10;;;;;;5550988;25;20471;-71
2024/04/08 10:28:06;;;;;;;10.83;2.30;;;29.50;42.10;;;;;;5550951;25;22286;-70
2024/04/08 10:30:36;;;;;;;53.70;8.23;;;29.60;40.50;;;;;;5553296;25;21052;-71
2024/04/08 10:33:06;;;;;;;33.27;6.40;;;29.70;37.30;;;;;;5551049;25;20463;-71
2024/04/08 10:35:36;;;;;;;17.67;3.07;;;29.90;42.70;;;;;;5553882;25;21152;-70
2024/04/08 10:38:04;;;;;;;15.50;2.90;;;30.00;39.70;;;;;;5551235;25;20522;-70
2024/04/08 10:40:34;;;;;;;13.40;2.77;;;30.20;36.10;;;;;;5553297;25;20858;-70
2024/04/08 10:43:01;;;;;;;16.37;2.83;;;30.30;38.80;;;;;;5551249;25;20574;-71
2024/04/08 10:45:31;;;;;;;10.47;1.97;;;30.60;36.00;;;;;;5553383;25;20516;-70
2024/04/08 10:47:59;;;;;;;10.30;2.40;;;30.90;34.90;;;;;;5551136;25;20525;-69
2024/04/08 10:50:38;;;;;;;11.73;2.43;;;31.20;36.60;;;;;;5553427;25;20475;-71
2024/04/08 10:53:06;;;;;;;13.90;2.93;;;31.20;36.90;;;;;;5550761;25;20476;-70
2024/04/08 10:55:35;;;;;;;15.23;2.50;;;31.50;35.10;;;;;;5553515;25;20471;-70
2024/04/08 10:58:03;;;;;;;10.63;2.30;;;31.20;33.40;;;;;;5550986;25;20563;-71
2024/04/08 11:00:33;;;;;;;10.70;1.90;;;31.20;36.30;;;;;;5553281;25;20828;-71
2024/04/08 11:03:01;;;;;;;10.67;2.00;;;31.30;33.90;;;;;;5551096;25;20467;-71
2024/04/08 11:05:33;;;;;;;11.10;2.10;;;31.70;36.60;;;;;;5553071;25;20531;-71
2024/04/08 11:08:00;;;;;;;10.97;2.20;;;31.90;37.20;;;;;;5551273;25;20467;-72
2024/04/08 11:10:32;;;;;;;11.10;2.23;;;31.90;33.10;;;;;;5553755;25;20478;-69
2024/04/08 11:13:00;;;;;;;10.70;2.20;;;32.00;33.70;;;;;;5550798;25;21068;-70
2024/04/08 11:15:31;;;;;;;9.67;1.70;;;32.30;32.50;;;;;;5553074;25;20531;-71
2024/04/08 11:17:58;;;;;;;11.03;1.87;;;32.50;31.10;;;;;;5551365;25;20707;-71
2024/04/08 11:20:29;;;;;;;12.43;2.20;;;32.30;36.70;;;;;;5553507;25;20516;-71
2024/04/08 11:23:02;;;;;;;10.63;2.40;;;32.30;35.80;;;;;;5551149;25;20516;-71
2024/04/08 11:25:32;;;;;;;10.80;2.60;;;32.60;38.50;;;;;;5553534;25;20463;-71
2024/04/08 11:28:00;;;;;;;12.13;2.40;;;32.30;34.80;;;;;;5551182;25;20800;-71
2024/04/08 11:30:35;;;;;;;12.47;2.30;;;31.90;34.20;;;;;;5553078;25;20569;-71
2024/04/08 11:33:02;;;;;;;10.00;2.30;;;31.90;33.80;;;;;;5549341;25;20462;-71
2024/04/08 11:35:33;;;;;;;11.20;2.40;;;32.10;29.80;;;;;;5553126;25;21067;-70
2024/04/08 11:38:04;;;;;;;11.63;2.43;;;31.70;34.50;;;;;;5549940;25;21115;-71
2024/04/08 11:40:52;;;;;;;14.17;4.70;;;31.90;37.60;;;;;;5547815;25;20467;-70
2024/04/08 11:43:19;;;;;;;11.40;2.93;;;31.80;32.20;;;;;;5527366;25;20471;-70
2024/04/08 11:45:49;;;;;;;15.10;2.63;;;31.20;31.40;;;;;;5553840;25;20463;-70
2024/04/08 11:48:18;;;;;;;12.27;2.57;;;31.00;32.40;;;;;;5539795;25;20517;-71
2024/04/08 11:50:48;;;;;;;10.47;2.90;;;30.90;33.10;;;;;;5554400;25;20562;-70
2024/04/08 11:53:18;;;;;;;12.90;1.90;;;31.20;31.20;;;;;;5553307;25;20833;-71
2024/04/08 11:55:48;;;;;;;12.30;2.63;;;31.60;31.30;;;;;;5554382;25;20538;-71
2024/04/08 11:58:15;;;;;;;14.43;2.20;;;32.50;30.60;;;;;;5554144;25;20463;-70
2024/04/08 12:00:45;;;;;;;17.47;3.20;;;32.60;30.00;;;;;;5554571;25;20451;-71
2024/04/08 12:03:12;;;;;;;19.87;4.20;;;32.30;31.00;;;;;;5553852;25;21107;-71
2024/04/08 12:05:42;;;;;;;15.57;2.97;;;32.50;33.20;;;;;;5554099;25;20467;-71
2024/04/08 12:08:09;;;;;;;10.97;2.43;;;33.10;32.30;;;;;;5552689;25;20469;-71
2024/04/08 12:10:41;;;;;;;10.27;2.27;;;33.60;29.60;;;;;;5554671;25;20460;-72
2024/04/08 12:13:15;;;;;;;13.30;2.17;;;33.90;29.90;;;;;;5552820;25;20465;-71
2024/04/08 12:15:45;;;;;;;9.67;2.60;;;34.40;29.90;;;;;;5554691;25;20471;-71
2024/04/08 12:18:12;;;;;;;12.43;2.27;;;34.60;31.80;;;;;;5553931;25;20509;-70
2024/04/08 12:20:42;;;;;;;12.17;2.30;;;34.60;35.30;;;;;;5554179;25;20459;-71
2024/04/08 12:23:11;;;;;;;14.83;2.67;;;34.50;34.30;;;;;;5552568;25;20461;-71
2024/04/08 12:25:44;;;;;;;11.23;2.70;;;34.90;34.50;;;;;;5554425;25;20475;-71
2024/04/08 12:28:11;;;;;;;9.10;1.93;;;34.90;32.20;;;;;;5552605;25;20471;-71
2024/04/08 12:30:45;;;;;;;13.83;3.73;;;34.90;33.00;;;;;;5554528;25;20451;-71
2024/04/08 12:33:12;;;;;;;11.53;2.83;;;35.20;32.10;;;;;;5552521;25;20463;-71
2024/04/08 12:35:42;;;;;;;11.83;2.40;;;35.60;31.70;;;;;;5554333;25;21155;-72
2024/04/08 12:38:13;;;;;;;11.90;2.33;;;35.60;31.70;;;;;;5552813;25;21155;-71
2024/04/08 12:40:43;;;;;;;13.07;3.30;;;35.60;31.70;;;;;;5554526;25;20549;-72
2024/04/08 12:43:12;;;;;;;12.10;2.10;;;36.10;30.40;;;;;;5551987;25;20580;-72
2024/04/08 12:45:40;;;;;;;12.53;2.37;;;36.40;31.50;;;;;;5554512;25;20522;-71
2024/04/08 12:48:10;;;;;;;13.93;2.77;;;36.50;33.70;;;;;;5553249;25;20475;-71
2024/04/08 12:50:38;;;;;;;12.30;2.60;;;36.20;29.80;;;;;;5554988;25;20470;-71